EDT,Max TemperatureF,Mean TemperatureF,Min TemperatureF,Max Dew PointF,MeanDew PointF,Min DewpointF,Max Humidity, Mean Humidity, Min Humidity, Max Sea Level PressureIn, Mean Sea Level PressureIn, Min Sea Level PressureIn, Max VisibilityMiles, Mean VisibilityMiles, Min VisibilityMiles, Max Wind SpeedMPH, Mean Wind SpeedMPH, Max Gust SpeedMPH,PrecipitationIn, CloudCover, Events, WindDirDegrees
2013-6-1,89,75,60,70,65,61,100,73,46,30.14,30.11,30.01,10,6,0,12,5,17,0.00,5,Fog,135
2013-6-2,92,78,64,72,68,64,100,72,44,30.07,29.98,29.88,10,9,4,15,6,20,0.01,5,Rain-Thunderstorm,174
2013-6-3,89,79,68,72,70,67,100,77,53,29.95,29.91,29.86,10,10,6,18,3,24,T,5,Rain-Thunderstorm,191
2013-6-4,92,79,66,73,69,66,100,75,50,30.03,29.97,29.92,10,7,1,14,3,18,0.18,4,Rain-Thunderstorm,44
2013-6-5,85,76,67,73,70,66,100,87,74,30.04,30.00,29.94,10,6,0,15,3,20,1.66,7,Fog-Rain-Thunderstorm,87
2013-6-6,79,75,70,73,70,69,100,87,74,29.94,29.84,29.71,10,7,2,18,5,28,1.56,8,Rain,101
2013-6-7,88,79,69,73,69,66,100,78,55,29.87,29.69,29.57,10,7,2,18,10,24,1.23,7,Rain-Thunderstorm,327
2013-6-8,87,78,69,70,68,66,100,76,51,30.08,29.96,29.85,10,8,1,12,4,16,0.00,4,,237
2013-6-9,86,78,69,75,71,68,100,85,69,30.13,30.09,30.04,9,4,0,18,3,23,1.19,5,Fog-Rain-Thunderstorm,120
2013-6-10,83,76,69,75,72,69,100,90,79,30.08,30.03,29.97,10,6,0,22,7,32,0.89,6,Fog-Rain-Thunderstorm,211
2013-6-11,92,80,68,76,71,68,100,76,52,30.04,30.00,29.93,10,6,1,15,6,20,0.11,6,Rain,244
2013-6-12,96,83,70,76,72,69,100,71,42,30.01,29.97,29.93,10,8,4,13,3,17,0.00,0,,288
2013-6-13,95,84,73,74,71,69,94,70,46,29.92,29.83,29.73,10,10,8,20,8,28,T,0,,255
2013-6-14,88,76,64,69,63,56,93,64,34,30.01,29.88,29.77,10,10,10,15,6,20,0.00,0,,8
2013-6-15,87,73,59,67,61,56,100,68,36,30.12,30.07,30.02,10,10,9,9,3,20,0.00,0,,139
2013-6-16,88,76,63,69,65,62,100,73,46,30.17,30.10,30.03,10,10,10,12,4,22,0.00,2,,195
2013-6-17,86,78,69,73,69,64,90,71,51,30.08,30.02,29.97,10,8,1,8,4,29,0.84,5,Rain-Thunderstorm,190
2013-6-18,86,78,70,75,72,68,97,83,69,29.99,29.92,29.85,10,10,10,13,5,24,0.02,4,Rain-Thunderstorm,231
2013-6-19,84,76,68,73,71,66,93,81,69,30.06,29.97,29.89,10,10,9,13,5,15,0.03,6,Rain-Thunderstorm,303
2013-6-20,87,77,66,68,66,62,93,69,45,30.17,30.13,30.06,10,10,7,16,6,23,0.00,3,,55
2013-6-21,87,76,64,66,63,59,100,71,42,30.22,30.17,30.14,10,9,1,16,5,25,0.00,0,,25
2013-6-22,89,77,65,72,66,62,93,70,47,30.19,30.15,30.09,10,10,10,13,4,17,0.00,2,Thunderstorm,16
2013-6-23,87,77,66,73,69,65,100,79,57,30.20,30.16,30.11,10,10,7,12,2,14,T,4,Rain-Thunderstorm,172
2013-6-24,89,79,68,73,71,68,100,82,63,30.22,30.17,30.12,10,7,0,29,3,38,1.24,4,Fog-Rain-Thunderstorm,132
2013-6-25,89,78,67,73,69,66,100,78,55,30.18,30.12,30.05,10,7,0,29,4,37,0.64,2,Fog-Rain-Thunderstorm,186
2013-6-26,90,80,69,75,72,69,100,80,59,30.08,30.03,29.95,10,9,0,26,3,32,0.62,3,Fog-Rain-Thunderstorm,205
2013-6-27,92,82,71,75,72,70,100,76,52,29.97,29.89,29.78,10,8,0,29,8,38,0.39,1,Fog-Rain-Thunderstorm,239
2013-6-28,94,82,70,75,71,66,100,75,49,29.82,29.75,29.65,10,10,2,31,7,40,0.00,0,,234
2013-6-29,84,78,72,74,71,67,94,82,69,29.74,29.71,29.68,10,10,6,15,7,17,0.00,5,,215
2013-6-30,87,79,70,75,72,69,100,85,70,29.84,29.77,29.72,10,9,4,16,5,21,0.31,5,Rain,187